NSZ3859 EGPH-EKBI
Flight info
| Callsign | NSZ3859 |
|---|---|
| Flight time | 1h 10m |
| Altitude | 37000 |
| Route | TLA6C TLA Y96 HAVEN DCT OTBUN DCT SURAT DCT PETIL L983 AMRAM P60 NARBA DCT GELBA DCT |
| Aircraft | A320/M-SDE3FGHIRWY/LB1 |
Departure
| Time | 2026-05-04 10:25 |
|---|---|
| Airport | Edinburgh Airport (EGPH) |
Arrival
| Time | 2026-05-04 11:35 |
|---|---|
| Airport | Billund Airport (EKBI) |
| Time | Latitude | Longitude | Altitude | Speed | Heading |
|---|---|---|---|---|---|
| 2026-05-04 09:53 | 55.94860 | -3.36612 | 114 ft | 0 kts | 145° |
| 2026-05-04 10:10 | 55.94861 | -3.36612 | 116 ft | 1 kts | 145° |
| 2026-05-04 10:11 | 55.94880 | -3.36636 | 112 ft | 4 kts | 145° |
| 2026-05-04 10:11 | 55.94898 | -3.36657 | 112 ft | 4 kts | 142° |
| 2026-05-04 10:11 | 55.94913 | -3.36685 | 113 ft | 4 kts | 88° |
| 2026-05-04 10:11 | 55.94913 | -3.36694 | 114 ft | 3 kts | 59° |
| 2026-05-04 10:12 | 55.94913 | -3.36675 | 113 ft | 4 kts | 133° |
| 2026-05-04 10:12 | 55.94913 | -3.36676 | 113 ft | 4 kts | 131° |
| 2026-05-04 10:12 | 55.94913 | -3.36695 | 114 ft | 4 kts | 59° |
| 2026-05-04 10:12 | 55.94906 | -3.36715 | 116 ft | 0 kts | 59° |
| 2026-05-04 10:16 | 55.94909 | -3.36708 | 116 ft | 3 kts | 59° |
| 2026-05-04 10:17 | 55.94924 | -3.36663 | 115 ft | 5 kts | 59° |
| 2026-05-04 10:17 | 55.94947 | -3.36596 | 115 ft | 7 kts | 59° |
| 2026-05-04 10:19 | 55.95213 | -3.36050 | 115 ft | 18 kts | 59° |
| 2026-05-04 10:19 | 55.95284 | -3.35840 | 113 ft | 21 kts | 60° |
| 2026-05-04 10:19 | 55.95361 | -3.35611 | 114 ft | 22 kts | 59° |
| 2026-05-04 10:19 | 55.95427 | -3.35421 | 113 ft | 15 kts | 49° |
| 2026-05-04 10:20 | 55.95443 | -3.35406 | 115 ft | 0 kts | 18° |
| 2026-05-04 10:20 | 55.95446 | -3.35404 | 114 ft | 2 kts | 18° |
| 2026-05-04 10:21 | 55.95472 | -3.35410 | 114 ft | 7 kts | 341° |
| 2026-05-04 10:21 | 55.95499 | -3.35440 | 112 ft | 0 kts | 327° |
| 2026-05-04 10:21 | 55.95532 | -3.35477 | 113 ft | 11 kts | 327° |
| 2026-05-04 10:22 | 55.95545 | -3.35644 | 113 ft | 0 kts | 239° |
| 2026-05-04 10:22 | 55.95510 | -3.35745 | 112 ft | 38 kts | 239° |
| 2026-05-04 10:22 | 55.95249 | -3.36514 | 112 ft | 103 kts | 238° |
| 2026-05-04 10:23 | 55.94796 | -3.37850 | 172 ft | 143 kts | 239° |
| 2026-05-04 10:23 | 55.94264 | -3.39428 | 646 ft | 155 kts | 240° |
| 2026-05-04 10:25 | 55.88613 | -3.52783 | 4500 ft | 260 kts | 194° |
| 2026-05-04 10:25 | 55.86770 | -3.52779 | 5366 ft | 270 kts | 178° |
| 2026-05-04 10:25 | 55.84875 | -3.52485 | 5974 ft | 276 kts | 179° |
| 2026-05-04 10:25 | 55.82956 | -3.52214 | 6850 ft | 278 kts | 179° |
| 2026-05-04 10:26 | 55.81014 | -3.51944 | 7653 ft | 282 kts | 176° |
| 2026-05-04 10:26 | 55.79078 | -3.51140 | 8432 ft | 289 kts | 166° |
| 2026-05-04 10:26 | 55.77142 | -3.50082 | 9259 ft | 293 kts | 166° |
| 2026-05-04 10:26 | 55.75211 | -3.49023 | 10031 ft | 296 kts | 165° |
| 2026-05-04 10:27 | 55.73197 | -3.47924 | 10432 ft | 313 kts | 165° |
| 2026-05-04 10:27 | 55.71038 | -3.46752 | 10630 ft | 335 kts | 165° |
| 2026-05-04 10:27 | 55.68778 | -3.45521 | 11141 ft | 343 kts | 165° |
| 2026-05-04 10:27 | 55.66480 | -3.44268 | 11759 ft | 348 kts | 165° |
| 2026-05-04 10:28 | 55.64147 | -3.42998 | 12391 ft | 353 kts | 165° |
| 2026-05-04 10:28 | 55.61788 | -3.41715 | 13037 ft | 357 kts | 165° |
| 2026-05-04 10:28 | 55.59404 | -3.40422 | 13677 ft | 361 kts | 165° |
| 2026-05-04 10:28 | 55.56991 | -3.39113 | 14253 ft | 365 kts | 165° |
| 2026-05-04 10:29 | 55.54590 | -3.37604 | 14816 ft | 370 kts | 156° |
| 2026-05-04 10:29 | 55.52405 | -3.35171 | 15376 ft | 375 kts | 141° |
| 2026-05-04 10:29 | 55.50601 | -3.31822 | 15952 ft | 379 kts | 126° |
| 2026-05-04 10:29 | 55.49313 | -3.27751 | 16489 ft | 383 kts | 111° |
| 2026-05-04 10:30 | 55.48617 | -3.23216 | 17061 ft | 385 kts | 99° |
| 2026-05-04 10:30 | 55.48130 | -3.18560 | 17631 ft | 387 kts | 99° |
| 2026-05-04 10:30 | 55.47638 | -3.13888 | 18259 ft | 389 kts | 99° |
| 2026-05-04 10:30 | 55.47140 | -3.09187 | 18775 ft | 391 kts | 100° |
| 2026-05-04 10:31 | 55.46633 | -3.04465 | 19305 ft | 393 kts | 100° |
| 2026-05-04 10:31 | 55.45933 | -2.99805 | 19814 ft | 396 kts | 109° |
| 2026-05-04 10:32 | 55.37859 | -2.73741 | 22883 ft | 413 kts | 118° |
| 2026-05-04 10:33 | 55.36447 | -2.69323 | 23388 ft | 416 kts | 118° |
| 2026-05-04 10:33 | 55.35021 | -2.64881 | 23833 ft | 419 kts | 118° |
| 2026-05-04 10:33 | 55.33579 | -2.60416 | 24224 ft | 421 kts | 118° |
| 2026-05-04 10:33 | 55.32147 | -2.55993 | 24587 ft | 423 kts | 118° |
| 2026-05-04 10:34 | 55.30729 | -2.51451 | 24963 ft | 425 kts | 113° |
| 2026-05-04 10:34 | 55.29699 | -2.46607 | 25312 ft | 424 kts | 102° |
| 2026-05-04 10:34 | 55.29171 | -2.41535 | 25675 ft | 423 kts | 92° |
| 2026-05-04 10:34 | 55.29159 | -2.36394 | 26035 ft | 421 kts | 82° |
| 2026-05-04 10:35 | 55.29644 | -2.31341 | 26421 ft | 420 kts | 74° |
| 2026-05-04 10:35 | 55.30310 | -2.26337 | 26804 ft | 422 kts | 74° |
| 2026-05-04 10:35 | 55.30975 | -2.21312 | 27175 ft | 424 kts | 74° |
| 2026-05-04 10:35 | 55.31415 | -2.17965 | 27428 ft | 425 kts | 74° |
| 2026-05-04 10:36 | 55.32088 | -2.12818 | 27802 ft | 428 kts | 74° |
| 2026-05-04 10:36 | 55.32744 | -2.07785 | 28162 ft | 430 kts | 74° |
| 2026-05-04 10:36 | 55.33411 | -2.02657 | 28529 ft | 432 kts | 74° |
| 2026-05-04 10:36 | 55.34078 | -1.97500 | 28890 ft | 434 kts | 74° |
| 2026-05-04 10:37 | 55.34747 | -1.92320 | 29238 ft | 436 kts | 74° |
| 2026-05-04 10:37 | 55.35417 | -1.87114 | 29587 ft | 438 kts | 74° |
| 2026-05-04 10:37 | 55.36085 | -1.81885 | 29924 ft | 440 kts | 74° |
| 2026-05-04 10:37 | 55.36751 | -1.76637 | 30353 ft | 439 kts | 74° |
| 2026-05-04 10:39 | 55.40655 | -1.45491 | 32872 ft | 431 kts | 74° |
| 2026-05-04 10:39 | 55.41298 | -1.40346 | 33287 ft | 430 kts | 74° |
| 2026-05-04 10:39 | 55.41936 | -1.35213 | 33706 ft | 429 kts | 75° |
| 2026-05-04 10:40 | 55.42569 | -1.30089 | 34110 ft | 428 kts | 75° |
| 2026-05-04 10:40 | 55.43197 | -1.24970 | 34433 ft | 428 kts | 75° |
| 2026-05-04 10:40 | 55.43823 | -1.19851 | 34705 ft | 428 kts | 75° |
| 2026-05-04 10:40 | 55.44449 | -1.14721 | 34960 ft | 429 kts | 75° |
| 2026-05-04 10:41 | 55.45073 | -1.09574 | 35234 ft | 430 kts | 75° |
| 2026-05-04 10:41 | 55.45696 | -1.04415 | 35466 ft | 431 kts | 76° |
| 2026-05-04 10:41 | 55.46320 | -0.99232 | 35686 ft | 433 kts | 76° |
| 2026-05-04 10:41 | 55.46942 | -0.94043 | 35925 ft | 434 kts | 76° |
| 2026-05-04 10:42 | 55.47566 | -0.88832 | 36046 ft | 436 kts | 76° |
| 2026-05-04 10:42 | 55.48829 | -0.78267 | 36065 ft | 442 kts | 76° |
| 2026-05-04 10:43 | 55.50084 | -0.67632 | 36065 ft | 443 kts | 76° |
| 2026-05-04 10:45 | 55.55003 | -0.24971 | 36063 ft | 446 kts | 76° |
| 2026-05-04 10:45 | 55.56217 | -0.14238 | 36065 ft | 446 kts | 76° |
| 2026-05-04 10:46 | 55.57426 | -0.03490 | 36064 ft | 446 kts | 76° |
| 2026-05-04 10:46 | 55.58624 | 0.07271 | 36066 ft | 446 kts | 77° |
| 2026-05-04 10:47 | 55.59820 | 0.18045 | 36064 ft | 447 kts | 77° |
| 2026-05-04 10:47 | 55.61008 | 0.28835 | 36065 ft | 447 kts | 77° |
| 2026-05-04 10:49 | 55.65637 | 0.72109 | 36072 ft | 448 kts | 77° |
| 2026-05-04 10:50 | 55.66780 | 0.82955 | 36071 ft | 448 kts | 77° |
| 2026-05-04 10:52 | 55.71237 | 1.26452 | 36070 ft | 449 kts | 78° |
| 2026-05-04 10:52 | 55.72315 | 1.37281 | 36072 ft | 449 kts | 78° |
| 2026-05-04 10:54 | 55.76587 | 1.80976 | 36073 ft | 449 kts | 78° |
| 2026-05-04 10:56 | 55.80717 | 2.24981 | 36053 ft | 453 kts | 78° |
| 2026-05-04 10:57 | 55.81735 | 2.36045 | 36051 ft | 454 kts | 79° |
| 2026-05-04 10:57 | 55.82744 | 2.47128 | 36052 ft | 454 kts | 79° |
| 2026-05-04 10:58 | 55.83733 | 2.58153 | 36055 ft | 454 kts | 79° |
| 2026-05-04 10:58 | 55.84712 | 2.69258 | 36058 ft | 455 kts | 79° |
| 2026-05-04 10:59 | 55.85676 | 2.80380 | 36060 ft | 455 kts | 79° |
| 2026-05-04 10:59 | 55.86642 | 2.91509 | 36064 ft | 455 kts | 79° |
| 2026-05-04 11:00 | 55.87606 | 3.02638 | 36057 ft | 455 kts | 79° |
| 2026-05-04 11:02 | 55.91325 | 3.47242 | 36049 ft | 455 kts | 80° |
| 2026-05-04 11:05 | 55.93066 | 4.32048 | 36046 ft | 457 kts | 87° |
| 2026-05-04 11:06 | 55.93234 | 4.43384 | 36046 ft | 457 kts | 87° |
| 2026-05-04 11:06 | 55.93395 | 4.54719 | 36049 ft | 457 kts | 87° |
| 2026-05-04 11:10 | 55.94185 | 5.34258 | 36046 ft | 459 kts | 88° |
| 2026-05-04 11:12 | 55.94401 | 5.79824 | 36045 ft | 459 kts | 89° |
| 2026-05-04 11:12 | 55.94430 | 5.91213 | 36042 ft | 459 kts | 89° |
| 2026-05-04 11:13 | 55.94453 | 6.02599 | 36044 ft | 459 kts | 89° |
| 2026-05-04 11:13 | 55.94466 | 6.13989 | 36040 ft | 459 kts | 89° |
| 2026-05-04 11:14 | 55.94465 | 6.25361 | 36049 ft | 458 kts | 89° |
| 2026-05-04 11:16 | 55.93988 | 6.70647 | 34250 ft | 449 kts | 94° |
| 2026-05-04 11:16 | 55.93678 | 6.76161 | 33856 ft | 445 kts | 94° |
| 2026-05-04 11:16 | 55.93368 | 6.81622 | 33394 ft | 441 kts | 94° |
| 2026-05-04 11:17 | 55.93064 | 6.86983 | 32827 ft | 440 kts | 94° |
| 2026-05-04 11:17 | 55.92755 | 6.92393 | 32313 ft | 437 kts | 94° |
| 2026-05-04 11:19 | 55.90586 | 7.29289 | 28976 ft | 418 kts | 95° |
| 2026-05-04 11:19 | 55.90273 | 7.34426 | 28486 ft | 416 kts | 95° |
| 2026-05-04 11:19 | 55.89958 | 7.39537 | 27998 ft | 414 kts | 96° |
| 2026-05-04 11:19 | 55.89643 | 7.44629 | 27500 ft | 413 kts | 96° |
| 2026-05-04 11:20 | 55.89330 | 7.49702 | 27041 ft | 411 kts | 96° |
| 2026-05-04 11:20 | 55.89019 | 7.54756 | 26607 ft | 409 kts | 96° |
| 2026-05-04 11:20 | 55.88708 | 7.59784 | 26174 ft | 407 kts | 96° |
| 2026-05-04 11:20 | 55.88395 | 7.64787 | 25747 ft | 406 kts | 96° |
| 2026-05-04 11:22 | 55.86174 | 7.99189 | 22619 ft | 394 kts | 98° |
| 2026-05-04 11:22 | 55.85853 | 8.04022 | 22154 ft | 392 kts | 98° |
| 2026-05-04 11:23 | 55.85532 | 8.08831 | 21705 ft | 390 kts | 98° |
| 2026-05-04 11:23 | 55.84997 | 8.13528 | 21267 ft | 385 kts | 109° |
| 2026-05-04 11:24 | 55.80574 | 8.38759 | 19322 ft | 360 kts | 109° |
| 2026-05-04 11:25 | 55.79840 | 8.42956 | 19201 ft | 351 kts | 109° |
| 2026-05-04 11:25 | 55.79124 | 8.47043 | 19073 ft | 342 kts | 110° |
| 2026-05-04 11:25 | 55.78418 | 8.51043 | 18872 ft | 337 kts | 110° |
| 2026-05-04 11:26 | 55.77016 | 8.58949 | 18300 ft | 334 kts | 110° |
| 2026-05-04 11:27 | 55.72444 | 8.87778 | 14809 ft | 360 kts | 99° |
| 2026-05-04 11:28 | 55.72089 | 8.92182 | 14319 ft | 361 kts | 99° |
| 2026-05-04 11:28 | 55.71734 | 8.96600 | 13845 ft | 363 kts | 99° |
| 2026-05-04 11:28 | 55.71381 | 9.00970 | 13313 ft | 363 kts | 99° |
| 2026-05-04 11:28 | 55.71015 | 9.05394 | 12782 ft | 363 kts | 100° |
| 2026-05-04 11:29 | 55.70641 | 9.09826 | 12255 ft | 363 kts | 100° |
| 2026-05-04 11:29 | 55.70260 | 9.14245 | 11750 ft | 363 kts | 100° |
| 2026-05-04 11:29 | 55.69879 | 9.18661 | 11238 ft | 362 kts | 99° |
| 2026-05-04 11:29 | 55.69503 | 9.23055 | 10740 ft | 360 kts | 99° |
| 2026-05-04 11:31 | 55.72528 | 9.48095 | 7897 ft | 269 kts | 350° |
| 2026-05-04 11:33 | 55.74424 | 9.30593 | 4190 ft | 222 kts | 268° |
| 2026-05-04 11:33 | 55.74362 | 9.27868 | 3387 ft | 220 kts | 269° |
| 2026-05-04 11:33 | 55.74297 | 9.25184 | 2584 ft | 213 kts | 269° |
| 2026-05-04 11:34 | 55.74230 | 9.22625 | 1763 ft | 200 kts | 269° |
| 2026-05-04 11:34 | 55.74179 | 9.20330 | 1110 ft | 173 kts | 269° |
| 2026-05-04 11:34 | 55.74123 | 9.18256 | 378 ft | 165 kts | 267° |
| 2026-05-04 11:34 | 55.74065 | 9.16422 | 221 ft | 129 kts | 268° |
| 2026-05-04 11:35 | 55.74033 | 9.15086 | 216 ft | 79 kts | 267° |
| 2026-05-04 11:35 | 55.74018 | 9.14590 | 218 ft | 15 kts | 266° |
| 2026-05-04 11:35 | 55.74088 | 9.14493 | 218 ft | 16 kts | 357° |
| 2026-05-04 11:35 | 55.74136 | 9.14491 | 216 ft | 5 kts | 358° |
| 2026-05-04 11:36 | 55.74173 | 9.14488 | 219 ft | 6 kts | 358° |
| 2026-05-04 11:36 | 55.74217 | 9.14481 | 219 ft | 7 kts | 354° |
| 2026-05-04 11:36 | 55.74268 | 9.14475 | 216 ft | 8 kts | 357° |
| 2026-05-04 11:36 | 55.74327 | 9.14471 | 216 ft | 9 kts | 358° |
| 2026-05-04 11:37 | 55.74393 | 9.14466 | 222 ft | 10 kts | 359° |
| 2026-05-04 11:37 | 55.74439 | 9.14532 | 221 ft | 7 kts | 71° |
| 2026-05-04 11:37 | 55.74477 | 9.14558 | 216 ft | 6 kts | 355° |
| 2026-05-04 11:37 | 55.74515 | 9.14554 | 216 ft | 2 kts | 357° |
| 2026-05-04 11:38 | 55.74530 | 9.14552 | 222 ft | 1 kts | 357° |
| 2026-05-04 11:38 | 55.74531 | 9.14552 | 221 ft | 0 kts | 357° |